sensor_id;sensor_type;location;lat;lon;timestamp;P1;durP1;ratioP1;P2;durP2;ratioP2
60169;SDS011;46042;49.444;6.862;2023-05-29T00:02:03;7.68;;;4.03;;
60169;SDS011;46042;49.444;6.862;2023-05-29T00:04:30;8.32;;;4.43;;
60169;SDS011;46042;49.444;6.862;2023-05-29T00:06:57;8.32;;;4.45;;
60169;SDS011;46042;49.444;6.862;2023-05-29T00:09:23;7.55;;;4.55;;
60169;SDS011;46042;49.444;6.862;2023-05-29T00:11:50;6.53;;;3.97;;
60169;SDS011;46042;49.444;6.862;2023-05-29T00:14:19;11.88;;;4.18;;
60169;SDS011;46042;49.444;6.862;2023-05-29T00:16:46;7.97;;;4.25;;
60169;SDS011;46042;49.444;6.862;2023-05-29T00:19:15;7.15;;;4.28;;
60169;SDS011;46042;49.444;6.862;2023-05-29T00:21:43;8.25;;;4.82;;
60169;SDS011;46042;49.444;6.862;2023-05-29T00:24:09;8.52;;;4.50;;
60169;SDS011;46042;49.444;6.862;2023-05-29T00:26:36;8.63;;;4.15;;
60169;SDS011;46042;49.444;6.862;2023-05-29T00:29:04;9.77;;;4.45;;
60169;SDS011;46042;49.444;6.862;2023-05-29T00:31:31;9.45;;;4.95;;
60169;SDS011;46042;49.444;6.862;2023-05-29T00:33:58;7.15;;;4.25;;
60169;SDS011;46042;49.444;6.862;2023-05-29T00:36:25;7.55;;;4.05;;
60169;SDS011;46042;49.444;6.862;2023-05-29T00:38:52;8.60;;;4.20;;
60169;SDS011;46042;49.444;6.862;2023-05-29T00:41:18;9.13;;;4.70;;
60169;SDS011;46042;49.444;6.862;2023-05-29T00:43:44;9.45;;;5.22;;
60169;SDS011;46042;49.444;6.862;2023-05-29T00:46:12;7.97;;;4.60;;
60169;SDS011;46042;49.444;6.862;2023-05-29T00:48:40;7.60;;;4.20;;
60169;SDS011;46042;49.444;6.862;2023-05-29T00:51:08;9.75;;;4.50;;
60169;SDS011;46042;49.444;6.862;2023-05-29T00:53:34;14.38;;;4.88;;
60169;SDS011;46042;49.444;6.862;2023-05-29T00:56:01;7.97;;;4.57;;
60169;SDS011;46042;49.444;6.862;2023-05-29T00:58:28;7.88;;;4.75;;
60169;SDS011;46042;49.444;6.862;2023-05-29T01:00:55;6.95;;;4.40;;
60169;SDS011;46042;49.444;6.862;2023-05-29T01:03:21;7.15;;;4.28;;
60169;SDS011;46042;49.444;6.862;2023-05-29T01:05:49;9.23;;;4.72;;
60169;SDS011;46042;49.444;6.862;2023-05-29T01:08:18;7.47;;;3.78;;
60169;SDS011;46042;49.444;6.862;2023-05-29T01:10:45;9.32;;;3.78;;
60169;SDS011;46042;49.444;6.862;2023-05-29T01:13:15;9.35;;;3.90;;
60169;SDS011;46042;49.444;6.862;2023-05-29T01:24:11;8.10;;;3.40;;
60169;SDS011;46042;49.444;6.862;2023-05-29T01:29:06;13.00;;;3.20;;
60169;SDS011;46042;49.444;6.862;2023-05-29T01:31:33;4.88;;;3.03;;
60169;SDS011;46042;49.444;6.862;2023-05-29T01:34:00;6.78;;;3.25;;
60169;SDS011;46042;49.444;6.862;2023-05-29T01:36:27;10.48;;;3.60;;
60169;SDS011;46042;49.444;6.862;2023-05-29T01:38:55;9.70;;;3.25;;
60169;SDS011;46042;49.444;6.862;2023-05-29T01:41:22;5.82;;;3.17;;
60169;SDS011;46042;49.444;6.862;2023-05-29T01:43:49;5.90;;;3.22;;
60169;SDS011;46042;49.444;6.862;2023-05-29T01:46:16;8.18;;;3.40;;
60169;SDS011;46042;49.444;6.862;2023-05-29T01:48:44;6.50;;;3.60;;
60169;SDS011;46042;49.444;6.862;2023-05-29T01:51:11;7.78;;;3.88;;
60169;SDS011;46042;49.444;6.862;2023-05-29T01:53:38;8.45;;;3.88;;
60169;SDS011;46042;49.444;6.862;2023-05-29T01:56:05;7.25;;;3.78;;
60169;SDS011;46042;49.444;6.862;2023-05-29T01:58:32;7.43;;;3.47;;
60169;SDS011;46042;49.444;6.862;2023-05-29T02:00:59;9.13;;;3.50;;
60169;SDS011;46042;49.444;6.862;2023-05-29T02:03:26;7.05;;;3.67;;
60169;SDS011;46042;49.444;6.862;2023-05-29T02:05:56;7.93;;;3.58;;
60169;SDS011;46042;49.444;6.862;2023-05-29T02:08:23;7.43;;;3.50;;
60169;SDS011;46042;49.444;6.862;2023-05-29T02:10:49;8.93;;;3.28;;
60169;SDS011;46042;49.444;6.862;2023-05-29T02:13:16;7.07;;;3.47;;
60169;SDS011;46042;49.444;6.862;2023-05-29T02:15:43;5.95;;;3.00;;
60169;SDS011;46042;49.444;6.862;2023-05-29T02:18:10;13.30;;;4.10;;
60169;SDS011;46042;49.444;6.862;2023-05-29T02:20:40;5.70;;;2.92;;
60169;SDS011;46042;49.444;6.862;2023-05-29T02:23:08;6.80;;;3.70;;
60169;SDS011;46042;49.444;6.862;2023-05-29T02:25:35;4.50;;;2.80;;
60169;SDS011;46042;49.444;6.862;2023-05-29T02:28:02;5.75;;;3.00;;
60169;SDS011;46042;49.444;6.862;2023-05-29T02:30:28;7.38;;;2.70;;
60169;SDS011;46042;49.444;6.862;2023-05-29T02:32:55;7.00;;;2.92;;
60169;SDS011;46042;49.444;6.862;2023-05-29T02:35:22;6.45;;;3.22;;
60169;SDS011;46042;49.444;6.862;2023-05-29T02:37:49;3.58;;;2.70;;
60169;SDS011;46042;49.444;6.862;2023-05-29T02:40:17;5.53;;;3.35;;
60169;SDS011;46042;49.444;6.862;2023-05-29T02:42:43;9.27;;;3.45;;
60169;SDS011;46042;49.444;6.862;2023-05-29T02:45:10;5.75;;;3.13;;
60169;SDS011;46042;49.444;6.862;2023-05-29T02:47:37;8.63;;;2.88;;
60169;SDS011;46042;49.444;6.862;2023-05-29T02:50:03;4.57;;;2.60;;
60169;SDS011;46042;49.444;6.862;2023-05-29T02:52:31;4.95;;;3.00;;
60169;SDS011;46042;49.444;6.862;2023-05-29T02:54:58;8.93;;;3.30;;
60169;SDS011;46042;49.444;6.862;2023-05-29T02:57:25;7.38;;;2.60;;
60169;SDS011;46042;49.444;6.862;2023-05-29T02:59:51;5.38;;;3.05;;
60169;SDS011;46042;49.444;6.862;2023-05-29T03:02:18;5.05;;;2.90;;
60169;SDS011;46042;49.444;6.862;2023-05-29T03:04:45;6.82;;;3.10;;
60169;SDS011;46042;49.444;6.862;2023-05-29T03:07:12;6.97;;;3.30;;
60169;SDS011;46042;49.444;6.862;2023-05-29T03:09:39;5.43;;;3.03;;
60169;SDS011;46042;49.444;6.862;2023-05-29T03:12:05;7.03;;;2.63;;
60169;SDS011;46042;49.444;6.862;2023-05-29T03:14:32;7.75;;;3.10;;
60169;SDS011;46042;49.444;6.862;2023-05-29T03:17:03;4.53;;;2.53;;
60169;SDS011;46042;49.444;6.862;2023-05-29T03:19:30;5.10;;;2.72;;
60169;SDS011;46042;49.444;6.862;2023-05-29T03:21:57;5.35;;;3.10;;
60169;SDS011;46042;49.444;6.862;2023-05-29T03:24:23;6.15;;;2.90;;
60169;SDS011;46042;49.444;6.862;2023-05-29T03:26:50;5.82;;;2.53;;
60169;SDS011;46042;49.444;6.862;2023-05-29T03:29:18;8.40;;;2.65;;
60169;SDS011;46042;49.444;6.862;2023-05-29T03:31:44;14.75;;;3.00;;
60169;SDS011;46042;49.444;6.862;2023-05-29T03:34:11;6.13;;;2.85;;
60169;SDS011;46042;49.444;6.862;2023-05-29T03:36:37;5.88;;;2.65;;
60169;SDS011;46042;49.444;6.862;2023-05-29T03:39:04;5.03;;;2.92;;
60169;SDS011;46042;49.444;6.862;2023-05-29T03:41:31;8.93;;;2.92;;
60169;SDS011;46042;49.444;6.862;2023-05-29T03:43:57;7.30;;;2.80;;
60169;SDS011;46042;49.444;6.862;2023-05-29T03:46:24;8.88;;;3.05;;
60169;SDS011;46042;49.444;6.862;2023-05-29T03:48:50;6.53;;;2.50;;
60169;SDS011;46042;49.444;6.862;2023-05-29T03:51:17;6.20;;;2.67;;
60169;SDS011;46042;49.444;6.862;2023-05-29T03:53:44;8.55;;;3.00;;
60169;SDS011;46042;49.444;6.862;2023-05-29T03:56:10;4.65;;;2.72;;
60169;SDS011;46042;49.444;6.862;2023-05-29T03:58:37;8.60;;;3.45;;
60169;SDS011;46042;49.444;6.862;2023-05-29T04:01:03;5.30;;;2.70;;
60169;SDS011;46042;49.444;6.862;2023-05-29T04:03:30;5.07;;;2.97;;
60169;SDS011;46042;49.444;6.862;2023-05-29T04:05:57;6.22;;;2.65;;
60169;SDS011;46042;49.444;6.862;2023-05-29T04:08:24;5.25;;;2.67;;
60169;SDS011;46042;49.444;6.862;2023-05-29T04:10:50;6.20;;;2.63;;
60169;SDS011;46042;49.444;6.862;2023-05-29T04:13:20;8.18;;;3.47;;
60169;SDS011;46042;49.444;6.862;2023-05-29T04:15:47;7.53;;;2.80;;
60169;SDS011;46042;49.444;6.862;2023-05-29T04:18:13;8.52;;;3.22;;
60169;SDS011;46042;49.444;6.862;2023-05-29T04:20:40;4.65;;;2.92;;
60169;SDS011;46042;49.444;6.862;2023-05-29T04:23:07;5.95;;;2.85;;
60169;SDS011;46042;49.444;6.862;2023-05-29T04:25:33;4.68;;;2.47;;
60169;SDS011;46042;49.444;6.862;2023-05-29T04:28:00;6.28;;;2.88;;
60169;SDS011;46042;49.444;6.862;2023-05-29T04:30:28;4.45;;;2.55;;
60169;SDS011;46042;49.444;6.862;2023-05-29T04:32:55;6.80;;;2.92;;
60169;SDS011;46042;49.444;6.862;2023-05-29T04:35:22;4.47;;;2.58;;
60169;SDS011;46042;49.444;6.862;2023-05-29T04:37:48;4.70;;;2.65;;
60169;SDS011;46042;49.444;6.862;2023-05-29T04:40:15;9.57;;;2.95;;
60169;SDS011;46042;49.444;6.862;2023-05-29T04:42:43;6.90;;;3.25;;
60169;SDS011;46042;49.444;6.862;2023-05-29T04:45:13;3.33;;;2.63;;
60169;SDS011;46042;49.444;6.862;2023-05-29T04:47:39;5.63;;;3.20;;
60169;SDS011;46042;49.444;6.862;2023-05-29T04:50:10;8.52;;;2.85;;
60169;SDS011;46042;49.444;6.862;2023-05-29T04:52:37;3.83;;;2.80;;
60169;SDS011;46042;49.444;6.862;2023-05-29T04:55:04;4.63;;;2.58;;
60169;SDS011;46042;49.444;6.862;2023-05-29T04:57:31;4.95;;;2.97;;
60169;SDS011;46042;49.444;6.862;2023-05-29T04:59:57;5.80;;;2.92;;
60169;SDS011;46042;49.444;6.862;2023-05-29T05:02:24;4.88;;;2.75;;
60169;SDS011;46042;49.444;6.862;2023-05-29T05:04:51;6.28;;;2.78;;
60169;SDS011;46042;49.444;6.862;2023-05-29T05:07:17;5.53;;;3.33;;
60169;SDS011;46042;49.444;6.862;2023-05-29T05:09:44;10.07;;;3.30;;
60169;SDS011;46042;49.444;6.862;2023-05-29T05:12:11;5.72;;;2.88;;
60169;SDS011;46042;49.444;6.862;2023-05-29T05:14:37;9.90;;;2.90;;
60169;SDS011;46042;49.444;6.862;2023-05-29T05:17:04;6.28;;;3.05;;
60169;SDS011;46042;49.444;6.862;2023-05-29T05:19:31;6.53;;;2.80;;
60169;SDS011;46042;49.444;6.862;2023-05-29T05:21:57;4.43;;;2.83;;
60169;SDS011;46042;49.444;6.862;2023-05-29T05:24:24;12.32;;;2.95;;
60169;SDS011;46042;49.444;6.862;2023-05-29T05:26:50;5.60;;;3.10;;
60169;SDS011;46042;49.444;6.862;2023-05-29T05:29:17;8.68;;;3.30;;
60169;SDS011;46042;49.444;6.862;2023-05-29T05:31:43;7.22;;;2.83;;
60169;SDS011;46042;49.444;6.862;2023-05-29T05:34:10;10.50;;;3.03;;
60169;SDS011;46042;49.444;6.862;2023-05-29T05:36:36;5.10;;;2.92;;
60169;SDS011;46042;49.444;6.862;2023-05-29T05:39:03;6.53;;;3.50;;
60169;SDS011;46042;49.444;6.862;2023-05-29T05:41:29;8.00;;;2.90;;
60169;SDS011;46042;49.444;6.862;2023-05-29T05:43:56;8.52;;;3.15;;
60169;SDS011;46042;49.444;6.862;2023-05-29T05:46:22;6.47;;;3.30;;
60169;SDS011;46042;49.444;6.862;2023-05-29T05:48:53;6.57;;;2.97;;
60169;SDS011;46042;49.444;6.862;2023-05-29T05:51:21;8.55;;;2.88;;
60169;SDS011;46042;49.444;6.862;2023-05-29T05:53:48;6.78;;;3.33;;
60169;SDS011;46042;49.444;6.862;2023-05-29T05:56:14;9.27;;;3.15;;
60169;SDS011;46042;49.444;6.862;2023-05-29T05:58:41;5.95;;;2.95;;
60169;SDS011;46042;49.444;6.862;2023-05-29T06:01:08;6.57;;;3.03;;
60169;SDS011;46042;49.444;6.862;2023-05-29T06:03:35;4.40;;;2.83;;
60169;SDS011;46042;49.444;6.862;2023-05-29T06:09:17;7.72;;;3.10;;
60169;SDS011;46042;49.444;6.862;2023-05-29T06:12:08;6.50;;;3.15;;
60169;SDS011;46042;49.444;6.862;2023-05-29T06:14:59;13.10;;;3.17;;
60169;SDS011;46042;49.444;6.862;2023-05-29T06:17:49;5.32;;;2.83;;
60169;SDS011;46042;49.444;6.862;2023-05-29T06:20:42;7.55;;;2.90;;
60169;SDS011;46042;49.444;6.862;2023-05-29T06:23:32;5.63;;;3.00;;
60169;SDS011;46042;49.444;6.862;2023-05-29T06:26:25;4.80;;;2.80;;
60169;SDS011;46042;49.444;6.862;2023-05-29T06:29:16;6.72;;;3.10;;
60169;SDS011;46042;49.444;6.862;2023-05-29T06:32:07;6.82;;;2.90;;
60169;SDS011;46042;49.444;6.862;2023-05-29T06:34:57;8.50;;;3.20;;
60169;SDS011;46042;49.444;6.862;2023-05-29T06:37:47;4.28;;;2.75;;
60169;SDS011;46042;49.444;6.862;2023-05-29T06:40:37;5.45;;;2.90;;
60169;SDS011;46042;49.444;6.862;2023-05-29T06:43:28;7.82;;;3.00;;
60169;SDS011;46042;49.444;6.862;2023-05-29T06:49:09;6.20;;;2.75;;
60169;SDS011;46042;49.444;6.862;2023-05-29T06:54:51;7.68;;;2.92;;
60169;SDS011;46042;49.444;6.862;2023-05-29T07:00:32;4.75;;;2.80;;
60169;SDS011;46042;49.444;6.862;2023-05-29T07:03:23;5.95;;;2.70;;
60169;SDS011;46042;49.444;6.862;2023-05-29T07:06:13;7.07;;;3.20;;
60169;SDS011;46042;49.444;6.862;2023-05-29T07:09:03;6.65;;;3.17;;
60169;SDS011;46042;49.444;6.862;2023-05-29T07:14:45;8.05;;;2.95;;
60169;SDS011;46042;49.444;6.862;2023-05-29T07:17:37;5.65;;;2.63;;
60169;SDS011;46042;49.444;6.862;2023-05-29T07:20:27;7.28;;;3.08;;
60169;SDS011;46042;49.444;6.862;2023-05-29T07:23:18;7.03;;;3.13;;
60169;SDS011;46042;49.444;6.862;2023-05-29T07:26:09;8.25;;;2.92;;
60169;SDS011;46042;49.444;6.862;2023-05-29T07:29:00;9.48;;;3.55;;
60169;SDS011;46042;49.444;6.862;2023-05-29T07:31:50;4.38;;;2.70;;
60169;SDS011;46042;49.444;6.862;2023-05-29T07:34:41;6.68;;;3.40;;
60169;SDS011;46042;49.444;6.862;2023-05-29T07:37:32;5.65;;;3.20;;
60169;SDS011;46042;49.444;6.862;2023-05-29T07:40:23;10.60;;;3.22;;
60169;SDS011;46042;49.444;6.862;2023-05-29T07:43:14;6.78;;;2.85;;
60169;SDS011;46042;49.444;6.862;2023-05-29T07:46:04;6.75;;;3.58;;
60169;SDS011;46042;49.444;6.862;2023-05-29T07:48:54;7.10;;;3.72;;
60169;SDS011;46042;49.444;6.862;2023-05-29T07:51:44;6.43;;;3.23;;
60169;SDS011;46042;49.444;6.862;2023-05-29T07:54:35;7.28;;;2.95;;
60169;SDS011;46042;49.444;6.862;2023-05-29T07:57:26;7.57;;;3.10;;
60169;SDS011;46042;49.444;6.862;2023-05-29T08:00:16;6.53;;;3.50;;
60169;SDS011;46042;49.444;6.862;2023-05-29T08:03:07;9.05;;;3.47;;
60169;SDS011;46042;49.444;6.862;2023-05-29T08:05:58;5.38;;;3.08;;
60169;SDS011;46042;49.444;6.862;2023-05-29T08:08:48;4.68;;;3.13;;
60169;SDS011;46042;49.444;6.862;2023-05-29T08:12:04;7.22;;;3.13;;
60169;SDS011;46042;49.444;6.862;2023-05-29T08:15:19;5.68;;;3.20;;
60169;SDS011;46042;49.444;6.862;2023-05-29T08:18:35;5.68;;;3.15;;
60169;SDS011;46042;49.444;6.862;2023-05-29T08:21:50;11.05;;;3.70;;
60169;SDS011;46042;49.444;6.862;2023-05-29T08:25:07;7.18;;;3.00;;
60169;SDS011;46042;49.444;6.862;2023-05-29T08:28:21;7.43;;;3.40;;
60169;SDS011;46042;49.444;6.862;2023-05-29T08:31:36;9.82;;;3.30;;
60169;SDS011;46042;49.444;6.862;2023-05-29T08:34:52;9.35;;;3.65;;
60169;SDS011;46042;49.444;6.862;2023-05-29T08:38:07;8.32;;;3.28;;
60169;SDS011;46042;49.444;6.862;2023-05-29T08:40:34;6.20;;;3.10;;
60169;SDS011;46042;49.444;6.862;2023-05-29T08:43:25;5.00;;;2.97;;
60169;SDS011;46042;49.444;6.862;2023-05-29T08:46:20;6.60;;;3.63;;
60169;SDS011;46042;49.444;6.862;2023-05-29T08:48:48;6.00;;;3.45;;
60169;SDS011;46042;49.444;6.862;2023-05-29T08:51:21;6.65;;;3.00;;
60169;SDS011;46042;49.444;6.862;2023-05-29T08:53:49;5.47;;;2.85;;
60169;SDS011;46042;49.444;6.862;2023-05-29T08:56:17;6.18;;;3.55;;
60169;SDS011;46042;49.444;6.862;2023-05-29T08:58:59;6.50;;;3.35;;
60169;SDS011;46042;49.444;6.862;2023-05-29T09:01:26;3.92;;;2.80;;
60169;SDS011;46042;49.444;6.862;2023-05-29T09:03:53;6.05;;;3.45;;
60169;SDS011;46042;49.444;6.862;2023-05-29T09:06:21;6.53;;;3.15;;
60169;SDS011;46042;49.444;6.862;2023-05-29T09:08:52;5.43;;;3.20;;
60169;SDS011;46042;49.444;6.862;2023-05-29T09:11:19;6.15;;;3.90;;
60169;SDS011;46042;49.444;6.862;2023-05-29T09:13:46;8.93;;;3.58;;
60169;SDS011;46042;49.444;6.862;2023-05-29T09:16:13;5.78;;;3.53;;
60169;SDS011;46042;49.444;6.862;2023-05-29T09:18:39;6.10;;;3.25;;
60169;SDS011;46042;49.444;6.862;2023-05-29T09:21:08;9.55;;;3.45;;
60169;SDS011;46042;49.444;6.862;2023-05-29T09:23:37;8.73;;;3.97;;
60169;SDS011;46042;49.444;6.862;2023-05-29T09:26:03;6.72;;;3.15;;
60169;SDS011;46042;49.444;6.862;2023-05-29T09:28:30;7.32;;;3.53;;
60169;SDS011;46042;49.444;6.862;2023-05-29T09:30:57;9.77;;;3.72;;
60169;SDS011;46042;49.444;6.862;2023-05-29T09:33:24;6.05;;;3.67;;
60169;SDS011;46042;49.444;6.862;2023-05-29T09:35:51;5.35;;;3.42;;
60169;SDS011;46042;49.444;6.862;2023-05-29T09:38:18;6.25;;;3.90;;
60169;SDS011;46042;49.444;6.862;2023-05-29T09:41:03;9.15;;;4.03;;
60169;SDS011;46042;49.444;6.862;2023-05-29T09:43:31;6.32;;;3.30;;
60169;SDS011;46042;49.444;6.862;2023-05-29T09:46:00;8.48;;;3.63;;
60169;SDS011;46042;49.444;6.862;2023-05-29T09:48:28;9.13;;;3.88;;
60169;SDS011;46042;49.444;6.862;2023-05-29T09:50:55;4.60;;;3.15;;
60169;SDS011;46042;49.444;6.862;2023-05-29T09:53:25;6.78;;;3.22;;
60169;SDS011;46042;49.444;6.862;2023-05-29T09:55:52;5.43;;;3.38;;
60169;SDS011;46042;49.444;6.862;2023-05-29T09:58:19;5.70;;;3.35;;
60169;SDS011;46042;49.444;6.862;2023-05-29T10:00:46;7.07;;;3.67;;
60169;SDS011;46042;49.444;6.862;2023-05-29T10:03:14;7.70;;;3.58;;
60169;SDS011;46042;49.444;6.862;2023-05-29T10:05:41;6.10;;;3.72;;
60169;SDS011;46042;49.444;6.862;2023-05-29T10:08:08;7.63;;;3.80;;
60169;SDS011;46042;49.444;6.862;2023-05-29T10:10:35;6.53;;;3.78;;
60169;SDS011;46042;49.444;6.862;2023-05-29T10:13:03;5.50;;;3.80;;
60169;SDS011;46042;49.444;6.862;2023-05-29T10:15:32;8.40;;;4.20;;
60169;SDS011;46042;49.444;6.862;2023-05-29T10:18:02;7.70;;;3.97;;
60169;SDS011;46042;49.444;6.862;2023-05-29T10:20:31;10.32;;;4.45;;
60169;SDS011;46042;49.444;6.862;2023-05-29T10:23:00;11.27;;;3.80;;
60169;SDS011;46042;49.444;6.862;2023-05-29T10:25:29;8.18;;;4.00;;
60169;SDS011;46042;49.444;6.862;2023-05-29T10:27:56;9.88;;;4.05;;
60169;SDS011;46042;49.444;6.862;2023-05-29T10:30:25;8.35;;;3.65;;
60169;SDS011;46042;49.444;6.862;2023-05-29T10:33:19;5.50;;;3.63;;
60169;SDS011;46042;49.444;6.862;2023-05-29T10:35:47;5.93;;;3.65;;
60169;SDS011;46042;49.444;6.862;2023-05-29T10:38:15;8.93;;;3.65;;
60169;SDS011;46042;49.444;6.862;2023-05-29T10:40:43;5.90;;;3.38;;
60169;SDS011;46042;49.444;6.862;2023-05-29T10:43:43;5.70;;;3.58;;
60169;SDS011;46042;49.444;6.862;2023-05-29T10:46:04;7.13;;;3.83;;
60169;SDS011;46042;49.444;6.862;2023-05-29T10:48:37;6.93;;;3.83;;
60169;SDS011;46042;49.444;6.862;2023-05-29T10:51:05;8.43;;;4.25;;
60169;SDS011;46042;49.444;6.862;2023-05-29T10:53:33;7.95;;;3.58;;
60169;SDS011;46042;49.444;6.862;2023-05-29T10:55:59;14.02;;;4.68;;
60169;SDS011;46042;49.444;6.862;2023-05-29T10:58:27;9.20;;;4.20;;
60169;SDS011;46042;49.444;6.862;2023-05-29T11:00:55;7.55;;;4.00;;
60169;SDS011;46042;49.444;6.862;2023-05-29T11:03:24;6.97;;;4.38;;
60169;SDS011;46042;49.444;6.862;2023-05-29T11:05:58;9.23;;;4.40;;
60169;SDS011;46042;49.444;6.862;2023-05-29T11:08:44;7.88;;;4.40;;
60169;SDS011;46042;49.444;6.862;2023-05-29T11:11:15;7.72;;;4.50;;
60169;SDS011;46042;49.444;6.862;2023-05-29T11:13:42;6.80;;;3.80;;
60169;SDS011;46042;49.444;6.862;2023-05-29T11:18:49;7.68;;;3.88;;
60169;SDS011;46042;49.444;6.862;2023-05-29T11:23:52;11.18;;;4.18;;
60169;SDS011;46042;49.444;6.862;2023-05-29T11:26:22;6.22;;;3.70;;
60169;SDS011;46042;49.444;6.862;2023-05-29T11:28:49;8.50;;;4.22;;
60169;SDS011;46042;49.444;6.862;2023-05-29T11:31:16;8.35;;;3.67;;
60169;SDS011;46042;49.444;6.862;2023-05-29T11:33:47;8.02;;;4.80;;
60169;SDS011;46042;49.444;6.862;2023-05-29T11:36:13;15.37;;;4.60;;
60169;SDS011;46042;49.444;6.862;2023-05-29T11:38:40;8.05;;;4.40;;
60169;SDS011;46042;49.444;6.862;2023-05-29T11:41:07;10.65;;;4.22;;
60169;SDS011;46042;49.444;6.862;2023-05-29T11:43:35;7.05;;;4.82;;
60169;SDS011;46042;49.444;6.862;2023-05-29T11:46:02;8.15;;;4.35;;
60169;SDS011;46042;49.444;6.862;2023-05-29T11:48:28;6.68;;;3.58;;
60169;SDS011;46042;49.444;6.862;2023-05-29T11:50:55;10.35;;;4.10;;
60169;SDS011;46042;49.444;6.862;2023-05-29T11:53:22;11.50;;;5.35;;
60169;SDS011;46042;49.444;6.862;2023-05-29T11:55:49;9.30;;;4.35;;
60169;SDS011;46042;49.444;6.862;2023-05-29T11:58:16;7.78;;;4.40;;
60169;SDS011;46042;49.444;6.862;2023-05-29T12:00:43;10.48;;;4.45;;
60169;SDS011;46042;49.444;6.862;2023-05-29T12:03:13;12.00;;;4.10;;
60169;SDS011;46042;49.444;6.862;2023-05-29T12:05:46;10.70;;;4.40;;
60169;SDS011;46042;49.444;6.862;2023-05-29T12:08:15;6.97;;;4.60;;
60169;SDS011;46042;49.444;6.862;2023-05-29T12:10:48;6.93;;;4.50;;
60169;SDS011;46042;49.444;6.862;2023-05-29T12:13:18;9.38;;;4.55;;
60169;SDS011;46042;49.444;6.862;2023-05-29T12:15:45;11.55;;;4.30;;
60169;SDS011;46042;49.444;6.862;2023-05-29T12:18:12;8.40;;;3.60;;
60169;SDS011;46042;49.444;6.862;2023-05-29T12:20:39;8.20;;;4.00;;
60169;SDS011;46042;49.444;6.862;2023-05-29T12:23:05;8.38;;;3.70;;
60169;SDS011;46042;49.444;6.862;2023-05-29T12:25:33;11.50;;;4.10;;
60169;SDS011;46042;49.444;6.862;2023-05-29T12:28:01;9.23;;;5.07;;
60169;SDS011;46042;49.444;6.862;2023-05-29T12:30:28;7.70;;;4.63;;
60169;SDS011;46042;49.444;6.862;2023-05-29T12:32:59;6.53;;;3.80;;
60169;SDS011;46042;49.444;6.862;2023-05-29T12:35:28;6.90;;;4.30;;
60169;SDS011;46042;49.444;6.862;2023-05-29T12:37:58;6.78;;;4.15;;
60169;SDS011;46042;49.444;6.862;2023-05-29T12:40:25;11.48;;;4.22;;
60169;SDS011;46042;49.444;6.862;2023-05-29T12:42:59;6.85;;;4.00;;
60169;SDS011;46042;49.444;6.862;2023-05-29T12:45:28;8.38;;;5.07;;
60169;SDS011;46042;49.444;6.862;2023-05-29T12:47:55;7.38;;;4.38;;
60169;SDS011;46042;49.444;6.862;2023-05-29T12:50:28;8.38;;;3.97;;
60169;SDS011;46042;49.444;6.862;2023-05-29T12:53:02;5.75;;;4.20;;
60169;SDS011;46042;49.444;6.862;2023-05-29T12:55:30;7.65;;;4.72;;
60169;SDS011;46042;49.444;6.862;2023-05-29T12:57:57;7.03;;;4.35;;
60169;SDS011;46042;49.444;6.862;2023-05-29T13:00:23;6.35;;;4.10;;
60169;SDS011;46042;49.444;6.862;2023-05-29T13:02:50;8.13;;;4.07;;
60169;SDS011;46042;49.444;6.862;2023-05-29T13:05:19;7.15;;;4.15;;
60169;SDS011;46042;49.444;6.862;2023-05-29T13:07:50;6.50;;;3.78;;
60169;SDS011;46042;49.444;6.862;2023-05-29T13:10:17;7.63;;;4.75;;
60169;SDS011;46042;49.444;6.862;2023-05-29T13:12:45;8.38;;;4.03;;
60169;SDS011;46042;49.444;6.862;2023-05-29T13:15:13;9.57;;;4.57;;
60169;SDS011;46042;49.444;6.862;2023-05-29T13:17:40;5.72;;;3.47;;
60169;SDS011;46042;49.444;6.862;2023-05-29T13:20:11;6.03;;;4.20;;
60169;SDS011;46042;49.444;6.862;2023-05-29T13:22:39;7.15;;;4.00;;
60169;SDS011;46042;49.444;6.862;2023-05-29T13:25:06;7.18;;;4.53;;
60169;SDS011;46042;49.444;6.862;2023-05-29T13:27:33;8.13;;;4.55;;
60169;SDS011;46042;49.444;6.862;2023-05-29T13:30:05;9.80;;;4.45;;
60169;SDS011;46042;49.444;6.862;2023-05-29T13:32:32;7.60;;;4.25;;
60169;SDS011;46042;49.444;6.862;2023-05-29T13:35:01;9.13;;;4.43;;
60169;SDS011;46042;49.444;6.862;2023-05-29T13:37:28;9.50;;;5.00;;
60169;SDS011;46042;49.444;6.862;2023-05-29T13:39:57;9.60;;;6.15;;
60169;SDS011;46042;49.444;6.862;2023-05-29T13:42:24;6.63;;;4.22;;
60169;SDS011;46042;49.444;6.862;2023-05-29T13:44:52;14.32;;;4.38;;
60169;SDS011;46042;49.444;6.862;2023-05-29T13:47:18;9.88;;;4.40;;
60169;SDS011;46042;49.444;6.862;2023-05-29T13:49:45;14.85;;;4.78;;
60169;SDS011;46042;49.444;6.862;2023-05-29T13:52:12;8.05;;;4.47;;
60169;SDS011;46042;49.444;6.862;2023-05-29T13:54:38;6.93;;;3.70;;
60169;SDS011;46042;49.444;6.862;2023-05-29T13:57:05;10.88;;;4.60;;
60169;SDS011;46042;49.444;6.862;2023-05-29T13:59:32;6.53;;;4.57;;
60169;SDS011;46042;49.444;6.862;2023-05-29T14:01:59;6.63;;;4.57;;
60169;SDS011;46042;49.444;6.862;2023-05-29T14:04:26;6.45;;;3.92;;
60169;SDS011;46042;49.444;6.862;2023-05-29T14:06:53;5.80;;;4.10;;
60169;SDS011;46042;49.444;6.862;2023-05-29T14:09:20;9.23;;;4.82;;
60169;SDS011;46042;49.444;6.862;2023-05-29T14:11:54;6.97;;;3.78;;
60169;SDS011;46042;49.444;6.862;2023-05-29T14:14:21;6.57;;;4.10;;
60169;SDS011;46042;49.444;6.862;2023-05-29T14:16:48;6.20;;;3.78;;
60169;SDS011;46042;49.444;6.862;2023-05-29T14:19:15;7.10;;;4.50;;
60169;SDS011;46042;49.444;6.862;2023-05-29T14:21:42;6.82;;;4.00;;
60169;SDS011;46042;49.444;6.862;2023-05-29T14:24:09;7.97;;;3.90;;
60169;SDS011;46042;49.444;6.862;2023-05-29T14:26:35;10.20;;;4.72;;
60169;SDS011;46042;49.444;6.862;2023-05-29T14:29:02;7.40;;;4.55;;
60169;SDS011;46042;49.444;6.862;2023-05-29T14:31:40;6.35;;;4.43;;
60169;SDS011;46042;49.444;6.862;2023-05-29T14:34:07;6.93;;;4.18;;
60169;SDS011;46042;49.444;6.862;2023-05-29T14:36:33;9.60;;;4.28;;
60169;SDS011;46042;49.444;6.862;2023-05-29T14:39:02;10.52;;;5.25;;
60169;SDS011;46042;49.444;6.862;2023-05-29T14:41:28;7.38;;;5.07;;
60169;SDS011;46042;49.444;6.862;2023-05-29T14:43:55;6.43;;;4.18;;
60169;SDS011;46042;49.444;6.862;2023-05-29T14:46:25;6.43;;;4.70;;
60169;SDS011;46042;49.444;6.862;2023-05-29T14:48:53;5.88;;;3.88;;
60169;SDS011;46042;49.444;6.862;2023-05-29T14:51:20;6.60;;;3.60;;
60169;SDS011;46042;49.444;6.862;2023-05-29T14:53:47;6.18;;;3.70;;
60169;SDS011;46042;49.444;6.862;2023-05-29T14:56:14;7.15;;;3.85;;
60169;SDS011;46042;49.444;6.862;2023-05-29T14:58:40;5.57;;;3.72;;
60169;SDS011;46042;49.444;6.862;2023-05-29T15:01:07;8.40;;;4.10;;
60169;SDS011;46042;49.444;6.862;2023-05-29T15:03:34;7.72;;;4.90;;
60169;SDS011;46042;49.444;6.862;2023-05-29T15:06:03;7.40;;;3.95;;
60169;SDS011;46042;49.444;6.862;2023-05-29T15:08:29;4.97;;;3.72;;
60169;SDS011;46042;49.444;6.862;2023-05-29T15:11:01;8.00;;;4.13;;
60169;SDS011;46042;49.444;6.862;2023-05-29T15:13:29;8.70;;;4.57;;
60169;SDS011;46042;49.444;6.862;2023-05-29T15:15:56;7.72;;;4.20;;
60169;SDS011;46042;49.444;6.862;2023-05-29T15:18:26;8.50;;;5.25;;
60169;SDS011;46042;49.444;6.862;2023-05-29T15:20:53;13.38;;;4.32;;
60169;SDS011;46042;49.444;6.862;2023-05-29T15:23:20;9.15;;;3.80;;
60169;SDS011;46042;49.444;6.862;2023-05-29T15:25:49;6.63;;;3.97;;
60169;SDS011;46042;49.444;6.862;2023-05-29T15:28:16;6.72;;;4.13;;
60169;SDS011;46042;49.444;6.862;2023-05-29T15:30:43;10.07;;;4.05;;
60169;SDS011;46042;49.444;6.862;2023-05-29T15:33:10;6.32;;;3.80;;
60169;SDS011;46042;49.444;6.862;2023-05-29T15:35:37;7.63;;;3.42;;
60169;SDS011;46042;49.444;6.862;2023-05-29T15:38:04;5.95;;;3.80;;
60169;SDS011;46042;49.444;6.862;2023-05-29T15:40:30;7.45;;;4.15;;
60169;SDS011;46042;49.444;6.862;2023-05-29T15:42:57;7.20;;;4.00;;